sensor_id;sensor_type;location;lat;lon;timestamp;P1;durP1;ratioP1;P2;durP2;ratioP2
35777;SDS011;21899;42.662;23.316;2023-07-20T00:01:28;8.00;;;2.47;;
35777;SDS011;21899;42.662;23.316;2023-07-20T00:03:54;5.93;;;2.17;;
35777;SDS011;21899;42.662;23.316;2023-07-20T00:06:22;8.73;;;2.20;;
35777;SDS011;21899;42.662;23.316;2023-07-20T00:08:53;3.42;;;1.98;;
35777;SDS011;21899;42.662;23.316;2023-07-20T00:11:25;3.67;;;1.50;;
35777;SDS011;21899;42.662;23.316;2023-07-20T00:13:52;4.10;;;2.25;;
35777;SDS011;21899;42.662;23.316;2023-07-20T00:16:17;7.47;;;2.15;;
35777;SDS011;21899;42.662;23.316;2023-07-20T00:18:42;8.02;;;2.58;;
35777;SDS011;21899;42.662;23.316;2023-07-20T00:21:08;6.78;;;2.33;;
35777;SDS011;21899;42.662;23.316;2023-07-20T00:23:34;5.93;;;2.42;;
35777;SDS011;21899;42.662;23.316;2023-07-20T00:25:59;10.30;;;2.38;;
35777;SDS011;21899;42.662;23.316;2023-07-20T00:28:25;8.32;;;2.33;;
35777;SDS011;21899;42.662;23.316;2023-07-20T00:30:50;2.65;;;1.83;;
35777;SDS011;21899;42.662;23.316;2023-07-20T00:33:16;5.70;;;2.47;;
35777;SDS011;21899;42.662;23.316;2023-07-20T00:35:43;14.10;;;2.30;;
35777;SDS011;21899;42.662;23.316;2023-07-20T00:38:08;4.45;;;1.90;;
35777;SDS011;21899;42.662;23.316;2023-07-20T00:40:40;5.65;;;2.42;;
35777;SDS011;21899;42.662;23.316;2023-07-20T00:43:06;3.88;;;2.00;;
35777;SDS011;21899;42.662;23.316;2023-07-20T00:45:33;5.10;;;2.22;;
35777;SDS011;21899;42.662;23.316;2023-07-20T00:47:59;5.22;;;2.25;;
35777;SDS011;21899;42.662;23.316;2023-07-20T00:50:26;7.20;;;2.38;;
35777;SDS011;21899;42.662;23.316;2023-07-20T00:52:54;7.28;;;2.00;;
35777;SDS011;21899;42.662;23.316;2023-07-20T00:55:20;4.00;;;1.75;;
35777;SDS011;21899;42.662;23.316;2023-07-20T00:57:46;4.75;;;1.85;;
35777;SDS011;21899;42.662;23.316;2023-07-20T01:00:12;6.88;;;2.42;;
35777;SDS011;21899;42.662;23.316;2023-07-20T01:02:38;3.40;;;1.88;;
35777;SDS011;21899;42.662;23.316;2023-07-20T01:05:04;5.88;;;2.15;;
35777;SDS011;21899;42.662;23.316;2023-07-20T01:07:35;9.13;;;2.97;;
35777;SDS011;21899;42.662;23.316;2023-07-20T01:12:53;5.05;;;2.30;;
35777;SDS011;21899;42.662;23.316;2023-07-20T01:15:20;5.97;;;2.45;;
35777;SDS011;21899;42.662;23.316;2023-07-20T01:17:45;6.47;;;2.95;;
35777;SDS011;21899;42.662;23.316;2023-07-20T01:20:13;4.03;;;1.98;;
35777;SDS011;21899;42.662;23.316;2023-07-20T01:28:16;2.85;;;1.65;;
35777;SDS011;21899;42.662;23.316;2023-07-20T01:30:46;6.43;;;2.58;;
35777;SDS011;21899;42.662;23.316;2023-07-20T01:33:20;5.30;;;2.28;;
35777;SDS011;21899;42.662;23.316;2023-07-20T01:35:54;5.95;;;2.55;;
35777;SDS011;21899;42.662;23.316;2023-07-20T01:38:22;4.93;;;2.25;;
35777;SDS011;21899;42.662;23.316;2023-07-20T01:40:49;5.75;;;2.60;;
35777;SDS011;21899;42.662;23.316;2023-07-20T01:43:16;4.97;;;2.33;;
35777;SDS011;21899;42.662;23.316;2023-07-20T01:45:42;8.73;;;2.92;;
35777;SDS011;21899;42.662;23.316;2023-07-20T01:48:08;4.68;;;2.40;;
35777;SDS011;21899;42.662;23.316;2023-07-20T01:50:34;7.10;;;2.17;;
35777;SDS011;21899;42.662;23.316;2023-07-20T01:52:59;9.23;;;2.95;;
35777;SDS011;21899;42.662;23.316;2023-07-20T01:55:25;6.22;;;2.10;;
35777;SDS011;21899;42.662;23.316;2023-07-20T01:57:50;5.78;;;2.35;;
35777;SDS011;21899;42.662;23.316;2023-07-20T02:00:16;4.55;;;2.25;;
35777;SDS011;21899;42.662;23.316;2023-07-20T02:02:44;8.90;;;2.30;;
35777;SDS011;21899;42.662;23.316;2023-07-20T02:05:09;6.72;;;2.92;;
35777;SDS011;21899;42.662;23.316;2023-07-20T02:07:35;4.00;;;2.40;;
35777;SDS011;21899;42.662;23.316;2023-07-20T02:10:00;7.60;;;2.83;;
35777;SDS011;21899;42.662;23.316;2023-07-20T02:12:25;7.03;;;2.63;;
35777;SDS011;21899;42.662;23.316;2023-07-20T02:14:51;5.82;;;2.63;;
35777;SDS011;21899;42.662;23.316;2023-07-20T02:17:16;4.53;;;2.70;;
35777;SDS011;21899;42.662;23.316;2023-07-20T02:19:42;4.75;;;2.10;;
35777;SDS011;21899;42.662;23.316;2023-07-20T02:22:07;6.93;;;2.88;;
35777;SDS011;21899;42.662;23.316;2023-07-20T02:24:33;4.65;;;2.80;;
35777;SDS011;21899;42.662;23.316;2023-07-20T02:26:59;8.05;;;2.75;;
35777;SDS011;21899;42.662;23.316;2023-07-20T02:29:24;14.63;;;2.70;;
35777;SDS011;21899;42.662;23.316;2023-07-20T02:31:50;6.65;;;2.63;;
35777;SDS011;21899;42.662;23.316;2023-07-20T02:34:15;7.35;;;2.20;;
35777;SDS011;21899;42.662;23.316;2023-07-20T02:36:40;6.20;;;2.85;;
35777;SDS011;21899;42.662;23.316;2023-07-20T02:39:07;6.97;;;2.80;;
35777;SDS011;21899;42.662;23.316;2023-07-20T02:41:33;6.30;;;2.70;;
35777;SDS011;21899;42.662;23.316;2023-07-20T02:43:59;8.63;;;3.03;;
35777;SDS011;21899;42.662;23.316;2023-07-20T02:46:26;7.47;;;2.53;;
35777;SDS011;21899;42.662;23.316;2023-07-20T02:48:51;5.25;;;2.40;;
35777;SDS011;21899;42.662;23.316;2023-07-20T02:51:17;5.90;;;2.55;;
35777;SDS011;21899;42.662;23.316;2023-07-20T02:53:43;7.80;;;2.60;;
35777;SDS011;21899;42.662;23.316;2023-07-20T02:56:08;7.28;;;3.28;;
35777;SDS011;21899;42.662;23.316;2023-07-20T02:58:34;7.07;;;2.25;;
35777;SDS011;21899;42.662;23.316;2023-07-20T03:01:03;5.75;;;2.22;;
35777;SDS011;21899;42.662;23.316;2023-07-20T03:03:29;7.32;;;2.97;;
35777;SDS011;21899;42.662;23.316;2023-07-20T03:05:54;6.72;;;2.40;;
35777;SDS011;21899;42.662;23.316;2023-07-20T03:08:21;5.22;;;2.47;;
35777;SDS011;21899;42.662;23.316;2023-07-20T03:10:47;6.13;;;2.50;;
35777;SDS011;21899;42.662;23.316;2023-07-20T03:13:12;7.28;;;3.08;;
35777;SDS011;21899;42.662;23.316;2023-07-20T03:15:39;9.15;;;2.92;;
35777;SDS011;21899;42.662;23.316;2023-07-20T03:18:05;8.57;;;2.40;;
35777;SDS011;21899;42.662;23.316;2023-07-20T03:20:30;7.10;;;2.83;;
35777;SDS011;21899;42.662;23.316;2023-07-20T03:22:56;6.78;;;2.92;;
35777;SDS011;21899;42.662;23.316;2023-07-20T03:25:21;8.77;;;2.95;;
35777;SDS011;21899;42.662;23.316;2023-07-20T03:27:47;7.05;;;2.70;;
35777;SDS011;21899;42.662;23.316;2023-07-20T03:30:13;8.05;;;2.85;;
35777;SDS011;21899;42.662;23.316;2023-07-20T03:32:38;5.93;;;3.13;;
35777;SDS011;21899;42.662;23.316;2023-07-20T03:35:04;5.53;;;2.78;;
35777;SDS011;21899;42.662;23.316;2023-07-20T03:37:29;8.73;;;2.80;;
35777;SDS011;21899;42.662;23.316;2023-07-20T03:39:55;10.35;;;2.72;;
35777;SDS011;21899;42.662;23.316;2023-07-20T03:42:20;4.82;;;2.80;;
35777;SDS011;21899;42.662;23.316;2023-07-20T03:44:46;7.32;;;3.08;;
35777;SDS011;21899;42.662;23.316;2023-07-20T03:47:11;4.55;;;2.53;;
35777;SDS011;21899;42.662;23.316;2023-07-20T03:49:37;6.82;;;2.75;;
35777;SDS011;21899;42.662;23.316;2023-07-20T03:52:02;13.70;;;2.83;;
35777;SDS011;21899;42.662;23.316;2023-07-20T03:54:28;7.00;;;2.67;;
35777;SDS011;21899;42.662;23.316;2023-07-20T03:56:54;9.25;;;2.67;;
35777;SDS011;21899;42.662;23.316;2023-07-20T03:59:20;4.82;;;2.75;;
35777;SDS011;21899;42.662;23.316;2023-07-20T04:01:45;7.15;;;3.28;;
35777;SDS011;21899;42.662;23.316;2023-07-20T04:04:11;5.47;;;2.88;;
35777;SDS011;21899;42.662;23.316;2023-07-20T04:06:36;9.57;;;3.13;;
35777;SDS011;21899;42.662;23.316;2023-07-20T04:09:03;8.82;;;2.92;;
35777;SDS011;21899;42.662;23.316;2023-07-20T04:11:29;8.50;;;2.92;;
35777;SDS011;21899;42.662;23.316;2023-07-20T04:13:55;4.70;;;2.65;;
35777;SDS011;21899;42.662;23.316;2023-07-20T04:16:21;4.82;;;2.60;;
35777;SDS011;21899;42.662;23.316;2023-07-20T04:18:46;10.98;;;3.05;;
35777;SDS011;21899;42.662;23.316;2023-07-20T04:21:12;5.57;;;3.00;;
35777;SDS011;21899;42.662;23.316;2023-07-20T04:23:37;4.53;;;2.33;;
35777;SDS011;21899;42.662;23.316;2023-07-20T04:26:03;6.78;;;2.72;;
35777;SDS011;21899;42.662;23.316;2023-07-20T04:28:28;7.55;;;3.28;;
35777;SDS011;21899;42.662;23.316;2023-07-20T04:30:53;4.13;;;2.55;;
35777;SDS011;21899;42.662;23.316;2023-07-20T04:33:19;6.55;;;2.97;;
35777;SDS011;21899;42.662;23.316;2023-07-20T04:35:54;8.60;;;3.13;;
35777;SDS011;21899;42.662;23.316;2023-07-20T04:38:19;12.45;;;2.95;;
35777;SDS011;21899;42.662;23.316;2023-07-20T04:40:46;9.85;;;3.22;;
35777;SDS011;21899;42.662;23.316;2023-07-20T04:43:16;6.75;;;2.67;;
35777;SDS011;21899;42.662;23.316;2023-07-20T04:45:42;8.13;;;3.15;;
35777;SDS011;21899;42.662;23.316;2023-07-20T04:48:12;6.20;;;2.83;;
35777;SDS011;21899;42.662;23.316;2023-07-20T04:50:42;6.70;;;2.83;;
35777;SDS011;21899;42.662;23.316;2023-07-20T04:53:08;7.57;;;2.65;;
35777;SDS011;21899;42.662;23.316;2023-07-20T04:55:35;7.10;;;3.03;;
35777;SDS011;21899;42.662;23.316;2023-07-20T04:58:02;7.25;;;2.65;;
35777;SDS011;21899;42.662;23.316;2023-07-20T05:00:29;6.03;;;3.38;;
35777;SDS011;21899;42.662;23.316;2023-07-20T05:02:55;8.88;;;2.90;;
35777;SDS011;21899;42.662;23.316;2023-07-20T05:05:21;5.80;;;2.40;;
35777;SDS011;21899;42.662;23.316;2023-07-20T05:07:47;10.07;;;3.13;;
35777;SDS011;21899;42.662;23.316;2023-07-20T05:10:12;6.70;;;2.75;;
35777;SDS011;21899;42.662;23.316;2023-07-20T05:12:38;5.07;;;2.53;;
35777;SDS011;21899;42.662;23.316;2023-07-20T05:15:03;4.20;;;2.42;;
35777;SDS011;21899;42.662;23.316;2023-07-20T05:17:29;6.35;;;2.53;;
35777;SDS011;21899;42.662;23.316;2023-07-20T05:19:54;5.38;;;2.90;;
35777;SDS011;21899;42.662;23.316;2023-07-20T05:22:20;9.57;;;2.70;;
35777;SDS011;21899;42.662;23.316;2023-07-20T05:24:45;9.02;;;3.47;;
35777;SDS011;21899;42.662;23.316;2023-07-20T05:27:11;5.45;;;2.80;;
35777;SDS011;21899;42.662;23.316;2023-07-20T05:29:37;7.45;;;2.58;;
35777;SDS011;21899;42.662;23.316;2023-07-20T05:32:02;5.70;;;3.00;;
35777;SDS011;21899;42.662;23.316;2023-07-20T05:34:28;7.53;;;2.42;;
35777;SDS011;21899;42.662;23.316;2023-07-20T05:37:09;7.32;;;2.67;;
35777;SDS011;21899;42.662;23.316;2023-07-20T05:39:34;10.82;;;2.88;;
35777;SDS011;21899;42.662;23.316;2023-07-20T05:41:59;7.05;;;2.30;;
35777;SDS011;21899;42.662;23.316;2023-07-20T05:44:25;5.07;;;3.13;;
35777;SDS011;21899;42.662;23.316;2023-07-20T05:46:50;6.63;;;2.92;;
35777;SDS011;21899;42.662;23.316;2023-07-20T05:49:15;5.57;;;3.00;;
35777;SDS011;21899;42.662;23.316;2023-07-20T05:51:41;5.22;;;2.38;;
35777;SDS011;21899;42.662;23.316;2023-07-20T05:54:06;5.25;;;2.40;;
35777;SDS011;21899;42.662;23.316;2023-07-20T05:56:32;7.55;;;2.78;;
35777;SDS011;21899;42.662;23.316;2023-07-20T05:58:57;4.43;;;2.38;;
35777;SDS011;21899;42.662;23.316;2023-07-20T06:01:22;8.68;;;2.40;;
35777;SDS011;21899;42.662;23.316;2023-07-20T06:03:48;8.35;;;2.47;;
35777;SDS011;21899;42.662;23.316;2023-07-20T06:06:13;7.35;;;2.20;;
35777;SDS011;21899;42.662;23.316;2023-07-20T06:08:40;11.50;;;2.72;;
35777;SDS011;21899;42.662;23.316;2023-07-20T06:11:05;6.68;;;3.38;;
35777;SDS011;21899;42.662;23.316;2023-07-20T06:13:30;7.80;;;2.42;;
35777;SDS011;21899;42.662;23.316;2023-07-20T06:15:56;6.03;;;2.35;;
35777;SDS011;21899;42.662;23.316;2023-07-20T06:18:22;4.97;;;2.53;;
35777;SDS011;21899;42.662;23.316;2023-07-20T06:20:48;7.82;;;2.60;;
35777;SDS011;21899;42.662;23.316;2023-07-20T06:23:15;8.93;;;3.25;;
35777;SDS011;21899;42.662;23.316;2023-07-20T06:25:40;9.13;;;2.92;;
35777;SDS011;21899;42.662;23.316;2023-07-20T06:28:06;5.82;;;2.53;;
35777;SDS011;21899;42.662;23.316;2023-07-20T06:30:33;5.30;;;2.28;;
35777;SDS011;21899;42.662;23.316;2023-07-20T06:32:59;6.13;;;2.88;;
35777;SDS011;21899;42.662;23.316;2023-07-20T06:35:25;6.53;;;2.10;;
35777;SDS011;21899;42.662;23.316;2023-07-20T06:37:51;7.32;;;2.63;;
35777;SDS011;21899;42.662;23.316;2023-07-20T06:40:16;7.35;;;2.78;;
35777;SDS011;21899;42.662;23.316;2023-07-20T06:42:42;7.03;;;3.10;;
35777;SDS011;21899;42.662;23.316;2023-07-20T06:45:08;6.35;;;2.75;;
35777;SDS011;21899;42.662;23.316;2023-07-20T06:47:34;9.20;;;2.90;;
35777;SDS011;21899;42.662;23.316;2023-07-20T06:49:59;4.38;;;2.42;;
35777;SDS011;21899;42.662;23.316;2023-07-20T06:52:25;4.80;;;2.85;;
35777;SDS011;21899;42.662;23.316;2023-07-20T06:54:50;11.80;;;3.45;;
35777;SDS011;21899;42.662;23.316;2023-07-20T06:57:16;4.82;;;2.58;;
35777;SDS011;21899;42.662;23.316;2023-07-20T06:59:41;4.43;;;2.47;;
35777;SDS011;21899;42.662;23.316;2023-07-20T07:02:07;7.07;;;2.95;;
35777;SDS011;21899;42.662;23.316;2023-07-20T07:04:33;6.82;;;2.78;;
35777;SDS011;21899;42.662;23.316;2023-07-20T07:06:59;6.13;;;2.70;;
35777;SDS011;21899;42.662;23.316;2023-07-20T07:09:25;6.40;;;2.53;;
35777;SDS011;21899;42.662;23.316;2023-07-20T07:11:50;6.20;;;2.90;;
35777;SDS011;21899;42.662;23.316;2023-07-20T07:14:15;6.05;;;2.75;;
35777;SDS011;21899;42.662;23.316;2023-07-20T07:16:41;7.40;;;3.20;;
35777;SDS011;21899;42.662;23.316;2023-07-20T07:19:06;5.82;;;2.78;;
35777;SDS011;21899;42.662;23.316;2023-07-20T07:21:32;8.27;;;3.38;;
35777;SDS011;21899;42.662;23.316;2023-07-20T07:23:57;5.05;;;3.05;;
35777;SDS011;21899;42.662;23.316;2023-07-20T07:26:24;11.50;;;4.20;;
35777;SDS011;21899;42.662;23.316;2023-07-20T07:28:50;10.05;;;3.72;;
35777;SDS011;21899;42.662;23.316;2023-07-20T07:31:15;8.65;;;3.33;;
35777;SDS011;21899;42.662;23.316;2023-07-20T07:33:41;8.93;;;3.28;;
35777;SDS011;21899;42.662;23.316;2023-07-20T07:36:06;12.15;;;3.58;;
35777;SDS011;21899;42.662;23.316;2023-07-20T07:38:32;8.82;;;3.38;;
35777;SDS011;21899;42.662;23.316;2023-07-20T07:40:57;7.32;;;3.22;;
35777;SDS011;21899;42.662;23.316;2023-07-20T07:43:23;9.13;;;4.03;;
35777;SDS011;21899;42.662;23.316;2023-07-20T07:45:49;8.10;;;4.22;;
35777;SDS011;21899;42.662;23.316;2023-07-20T07:48:14;9.35;;;3.55;;
35777;SDS011;21899;42.662;23.316;2023-07-20T07:50:39;8.38;;;3.45;;
35777;SDS011;21899;42.662;23.316;2023-07-20T07:53:05;13.88;;;3.85;;
35777;SDS011;21899;42.662;23.316;2023-07-20T07:55:31;7.95;;;4.05;;
35777;SDS011;21899;42.662;23.316;2023-07-20T07:57:56;8.27;;;4.13;;
35777;SDS011;21899;42.662;23.316;2023-07-20T08:00:21;10.93;;;4.07;;
35777;SDS011;21899;42.662;23.316;2023-07-20T08:02:47;8.35;;;3.25;;
35777;SDS011;21899;42.662;23.316;2023-07-20T08:05:15;12.38;;;3.42;;
35777;SDS011;21899;42.662;23.316;2023-07-20T08:07:40;20.42;;;4.30;;
35777;SDS011;21899;42.662;23.316;2023-07-20T08:10:06;9.40;;;3.78;;
35777;SDS011;21899;42.662;23.316;2023-07-20T08:12:32;9.35;;;3.25;;
35777;SDS011;21899;42.662;23.316;2023-07-20T08:14:57;8.55;;;4.03;;
35777;SDS011;21899;42.662;23.316;2023-07-20T08:17:23;6.72;;;3.40;;
35777;SDS011;21899;42.662;23.316;2023-07-20T08:19:49;5.43;;;2.80;;
35777;SDS011;21899;42.662;23.316;2023-07-20T08:22:14;7.63;;;2.83;;
35777;SDS011;21899;42.662;23.316;2023-07-20T08:24:41;7.22;;;2.40;;
35777;SDS011;21899;42.662;23.316;2023-07-20T08:27:07;4.88;;;2.40;;
35777;SDS011;21899;42.662;23.316;2023-07-20T08:29:33;6.38;;;2.60;;
35777;SDS011;21899;42.662;23.316;2023-07-20T08:31:59;6.72;;;2.50;;
35777;SDS011;21899;42.662;23.316;2023-07-20T08:34:24;5.30;;;2.13;;
35777;SDS011;21899;42.662;23.316;2023-07-20T08:36:50;9.40;;;2.20;;
35777;SDS011;21899;42.662;23.316;2023-07-20T08:39:15;4.75;;;2.20;;
35777;SDS011;21899;42.662;23.316;2023-07-20T08:41:41;5.75;;;2.40;;
35777;SDS011;21899;42.662;23.316;2023-07-20T08:44:07;7.00;;;1.92;;
35777;SDS011;21899;42.662;23.316;2023-07-20T08:46:34;10.23;;;3.38;;
35777;SDS011;21899;42.662;23.316;2023-07-20T08:49:00;6.70;;;2.25;;
35777;SDS011;21899;42.662;23.316;2023-07-20T08:51:27;9.68;;;2.42;;
35777;SDS011;21899;42.662;23.316;2023-07-20T08:53:54;4.13;;;2.20;;
35777;SDS011;21899;42.662;23.316;2023-07-20T08:56:19;10.70;;;2.90;;
35777;SDS011;21899;42.662;23.316;2023-07-20T08:58:46;6.88;;;2.10;;
35777;SDS011;21899;42.662;23.316;2023-07-20T09:01:12;11.40;;;2.63;;
35777;SDS011;21899;42.662;23.316;2023-07-20T09:03:39;7.50;;;2.05;;
35777;SDS011;21899;42.662;23.316;2023-07-20T09:06:05;6.15;;;2.65;;
35777;SDS011;21899;42.662;23.316;2023-07-20T09:08:30;8.85;;;2.30;;
35777;SDS011;21899;42.662;23.316;2023-07-20T09:10:56;6.65;;;2.17;;
35777;SDS011;21899;42.662;23.316;2023-07-20T09:13:22;3.92;;;2.13;;
35777;SDS011;21899;42.662;23.316;2023-07-20T09:15:55;8.10;;;1.88;;
35777;SDS011;21899;42.662;23.316;2023-07-20T09:18:27;11.60;;;2.30;;
35777;SDS011;21899;42.662;23.316;2023-07-20T09:21:04;3.85;;;2.17;;
35777;SDS011;21899;42.662;23.316;2023-07-20T09:23:33;5.03;;;1.90;;
35777;SDS011;21899;42.662;23.316;2023-07-20T09:26:00;4.47;;;2.17;;
35777;SDS011;21899;42.662;23.316;2023-07-20T09:28:39;6.25;;;2.25;;
35777;SDS011;21899;42.662;23.316;2023-07-20T09:31:15;4.97;;;2.17;;
35777;SDS011;21899;42.662;23.316;2023-07-20T09:33:44;6.60;;;2.25;;
35777;SDS011;21899;42.662;23.316;2023-07-20T09:36:10;8.52;;;2.47;;
35777;SDS011;21899;42.662;23.316;2023-07-20T09:38:36;7.38;;;2.42;;
35777;SDS011;21899;42.662;23.316;2023-07-20T09:41:02;7.63;;;1.98;;
35777;SDS011;21899;42.662;23.316;2023-07-20T09:43:30;3.35;;;1.70;;
35777;SDS011;21899;42.662;23.316;2023-07-20T09:45:57;6.13;;;1.90;;
35777;SDS011;21899;42.662;23.316;2023-07-20T09:48:24;5.28;;;1.88;;
35777;SDS011;21899;42.662;23.316;2023-07-20T09:50:51;4.18;;;2.42;;
35777;SDS011;21899;42.662;23.316;2023-07-20T09:53:17;4.68;;;2.05;;
35777;SDS011;21899;42.662;23.316;2023-07-20T09:55:43;5.47;;;2.00;;
35777;SDS011;21899;42.662;23.316;2023-07-20T09:58:10;4.22;;;1.90;;
35777;SDS011;21899;42.662;23.316;2023-07-20T10:00:36;6.00;;;1.67;;
35777;SDS011;21899;42.662;23.316;2023-07-20T10:03:03;3.38;;;1.60;;
35777;SDS011;21899;42.662;23.316;2023-07-20T10:05:32;4.40;;;1.70;;
35777;SDS011;21899;42.662;23.316;2023-07-20T10:08:02;4.40;;;2.03;;
35777;SDS011;21899;42.662;23.316;2023-07-20T10:10:30;5.68;;;2.15;;
35777;SDS011;21899;42.662;23.316;2023-07-20T10:12:57;4.35;;;1.60;;
35777;SDS011;21899;42.662;23.316;2023-07-20T10:15:24;5.80;;;2.10;;
35777;SDS011;21899;42.662;23.316;2023-07-20T10:17:59;7.57;;;2.17;;
35777;SDS011;21899;42.662;23.316;2023-07-20T10:20:48;4.95;;;1.92;;
35777;SDS011;21899;42.662;23.316;2023-07-20T10:23:16;4.50;;;1.98;;
35777;SDS011;21899;42.662;23.316;2023-07-20T10:25:42;4.50;;;2.20;;
35777;SDS011;21899;42.662;23.316;2023-07-20T10:28:08;7.15;;;1.83;;
35777;SDS011;21899;42.662;23.316;2023-07-20T10:30:36;4.95;;;2.00;;
35777;SDS011;21899;42.662;23.316;2023-07-20T10:33:03;5.70;;;2.05;;
35777;SDS011;21899;42.662;23.316;2023-07-20T10:35:29;3.83;;;1.95;;
35777;SDS011;21899;42.662;23.316;2023-07-20T10:38:04;6.22;;;1.83;;
35777;SDS011;21899;42.662;23.316;2023-07-20T10:43:00;3.45;;;1.75;;
35777;SDS011;21899;42.662;23.316;2023-07-20T10:45:39;10.20;;;2.05;;
35777;SDS011;21899;42.662;23.316;2023-07-20T10:48:07;4.65;;;1.90;;
35777;SDS011;21899;42.662;23.316;2023-07-20T10:50:39;4.88;;;1.90;;
35777;SDS011;21899;42.662;23.316;2023-07-20T10:53:23;5.32;;;2.00;;
35777;SDS011;21899;42.662;23.316;2023-07-20T10:55:49;3.90;;;2.03;;
35777;SDS011;21899;42.662;23.316;2023-07-20T10:58:31;4.60;;;1.77;;
35777;SDS011;21899;42.662;23.316;2023-07-20T11:00:57;6.85;;;2.05;;
35777;SDS011;21899;42.662;23.316;2023-07-20T11:03:29;4.32;;;1.98;;
35777;SDS011;21899;42.662;23.316;2023-07-20T11:05:56;8.65;;;2.25;;
35777;SDS011;21899;42.662;23.316;2023-07-20T11:08:38;5.40;;;2.40;;
35777;SDS011;21899;42.662;23.316;2023-07-20T11:11:26;5.03;;;2.20;;
35777;SDS011;21899;42.662;23.316;2023-07-20T11:13:56;3.95;;;1.95;;
35777;SDS011;21899;42.662;23.316;2023-07-20T11:19:00;3.35;;;2.00;;
35777;SDS011;21899;42.662;23.316;2023-07-20T11:21:26;9.10;;;2.30;;
35777;SDS011;21899;42.662;23.316;2023-07-20T11:23:52;7.07;;;2.50;;
35777;SDS011;21899;42.662;23.316;2023-07-20T11:26:18;11.30;;;3.10;;
35777;SDS011;21899;42.662;23.316;2023-07-20T11:28:48;5.60;;;2.53;;
35777;SDS011;21899;42.662;23.316;2023-07-20T11:31:17;4.68;;;2.10;;
35777;SDS011;21899;42.662;23.316;2023-07-20T11:33:43;5.00;;;2.63;;
35777;SDS011;21899;42.662;23.316;2023-07-20T11:36:08;7.78;;;2.97;;
35777;SDS011;21899;42.662;23.316;2023-07-20T11:38:34;8.38;;;2.70;;
35777;SDS011;21899;42.662;23.316;2023-07-20T11:40:59;7.72;;;3.22;;
35777;SDS011;21899;42.662;23.316;2023-07-20T11:43:25;5.57;;;3.03;;
35777;SDS011;21899;42.662;23.316;2023-07-20T11:45:51;4.95;;;2.97;;
35777;SDS011;21899;42.662;23.316;2023-07-20T11:48:16;6.90;;;3.60;;
35777;SDS011;21899;42.662;23.316;2023-07-20T11:50:42;4.97;;;3.28;;
35777;SDS011;21899;42.662;23.316;2023-07-20T11:53:08;5.35;;;2.80;;
35777;SDS011;21899;42.662;23.316;2023-07-20T11:55:34;6.95;;;3.50;;
35777;SDS011;21899;42.662;23.316;2023-07-20T11:58:06;5.82;;;3.15;;
35777;SDS011;21899;42.662;23.316;2023-07-20T12:00:32;6.13;;;3.50;;
35777;SDS011;21899;42.662;23.316;2023-07-20T12:02:59;8.07;;;3.33;;
35777;SDS011;21899;42.662;23.316;2023-07-20T12:05:25;7.85;;;3.42;;
35777;SDS011;21899;42.662;23.316;2023-07-20T12:07:51;6.38;;;3.17;;
35777;SDS011;21899;42.662;23.316;2023-07-20T12:10:22;6.80;;;3.65;;
35777;SDS011;21899;42.662;23.316;2023-07-20T12:12:49;4.80;;;2.97;;
35777;SDS011;21899;42.662;23.316;2023-07-20T12:17:53;6.25;;;2.55;;
35777;SDS011;21899;42.662;23.316;2023-07-20T12:20:38;6.97;;;2.90;;
35777;SDS011;21899;42.662;23.316;2023-07-20T12:23:11;7.05;;;2.50;;
35777;SDS011;21899;42.662;23.316;2023-07-20T12:25:41;6.15;;;2.63;;
35777;SDS011;21899;42.662;23.316;2023-07-20T12:28:11;5.63;;;2.55;;
35777;SDS011;21899;42.662;23.316;2023-07-20T12:30:41;6.15;;;2.63;;
35777;SDS011;21899;42.662;23.316;2023-07-20T12:33:07;10.32;;;2.20;;
35777;SDS011;21899;42.662;23.316;2023-07-20T12:35:32;6.10;;;2.78;;
35777;SDS011;21899;42.662;23.316;2023-07-20T12:37:58;9.43;;;3.70;;
35777;SDS011;21899;42.662;23.316;2023-07-20T12:40:23;7.53;;;3.00;;
35777;SDS011;21899;42.662;23.316;2023-07-20T12:42:49;6.10;;;2.20;;
35777;SDS011;21899;42.662;23.316;2023-07-20T12:45:14;6.20;;;2.03;;
35777;SDS011;21899;42.662;23.316;2023-07-20T12:47:40;6.10;;;2.45;;
35777;SDS011;21899;42.662;23.316;2023-07-20T12:50:08;6.78;;;2.45;;
35777;SDS011;21899;42.662;23.316;2023-07-20T12:52:37;5.38;;;1.77;;
35777;SDS011;21899;42.662;23.316;2023-07-20T12:55:03;6.47;;;2.33;;
35777;SDS011;21899;42.662;23.316;2023-07-20T12:57:30;6.18;;;2.28;;
35777;SDS011;21899;42.662;23.316;2023-07-20T12:59:55;3.97;;;2.42;;
35777;SDS011;21899;42.662;23.316;2023-07-20T13:02:20;8.68;;;2.67;;
35777;SDS011;21899;42.662;23.316;2023-07-20T13:04:46;6.25;;;2.38;;
35777;SDS011;21899;42.662;23.316;2023-07-20T13:07:11;6.22;;;2.60;;
35777;SDS011;21899;42.662;23.316;2023-07-20T13:09:39;5.93;;;2.47;;
35777;SDS011;21899;42.662;23.316;2023-07-20T13:12:05;4.05;;;1.92;;
35777;SDS011;21899;42.662;23.316;2023-07-20T13:14:30;4.97;;;2.25;;
35777;SDS011;21899;42.662;23.316;2023-07-20T13:16:56;5.75;;;2.65;;
35777;SDS011;21899;42.662;23.316;2023-07-20T13:19:21;4.65;;;2.40;;
35777;SDS011;21899;42.662;23.316;2023-07-20T13:21:47;4.53;;;2.22;;
35777;SDS011;21899;42.662;23.316;2023-07-20T13:24:12;4.80;;;2.10;;
35777;SDS011;21899;42.662;23.316;2023-07-20T13:26:38;4.25;;;2.15;;
35777;SDS011;21899;42.662;23.316;2023-07-20T13:29:03;8.25;;;2.15;;
35777;SDS011;21899;42.662;23.316;2023-07-20T13:31:28;6.45;;;2.40;;
35777;SDS011;21899;42.662;23.316;2023-07-20T13:33:54;4.43;;;2.22;;
35777;SDS011;21899;42.662;23.316;2023-07-20T13:36:20;5.20;;;2.20;;
35777;SDS011;21899;42.662;23.316;2023-07-20T13:38:46;6.55;;;2.10;;
35777;SDS011;21899;42.662;23.316;2023-07-20T13:41:11;6.63;;;2.15;;
35777;SDS011;21899;42.662;23.316;2023-07-20T13:43:37;8.50;;;2.25;;
35777;SDS011;21899;42.662;23.316;2023-07-20T13:46:02;5.57;;;2.38;;
35777;SDS011;21899;42.662;23.316;2023-07-20T13:48:27;5.65;;;2.22;;
35777;SDS011;21899;42.662;23.316;2023-07-20T13:50:53;8.55;;;2.50;;
35777;SDS011;21899;42.662;23.316;2023-07-20T13:53:19;10.60;;;2.55;;
35777;SDS011;21899;42.662;23.316;2023-07-20T13:55:44;3.90;;;2.58;;
35777;SDS011;21899;42.662;23.316;2023-07-20T13:58:10;6.80;;;1.73;;
35777;SDS011;21899;42.662;23.316;2023-07-20T14:00:35;9.80;;;2.42;;
35777;SDS011;21899;42.662;23.316;2023-07-20T14:03:01;4.32;;;1.70;;
35777;SDS011;21899;42.662;23.316;2023-07-20T14:05:26;6.15;;;2.28;;
35777;SDS011;21899;42.662;23.316;2023-07-20T14:07:53;6.90;;;2.47;;
35777;SDS011;21899;42.662;23.316;2023-07-20T14:10:18;8.27;;;2.63;;
35777;SDS011;21899;42.662;23.316;2023-07-20T14:12:44;2.97;;;1.67;;
35777;SDS011;21899;42.662;23.316;2023-07-20T14:15:10;3.05;;;1.50;;
35777;SDS011;21899;42.662;23.316;2023-07-20T14:17:36;4.88;;;1.70;;
35777;SDS011;21899;42.662;23.316;2023-07-20T14:20:01;3.80;;;1.95;;
35777;SDS011;21899;42.662;23.316;2023-07-20T14:22:30;4.13;;;2.67;;
35777;SDS011;21899;42.662;23.316;2023-07-20T14:24:56;4.97;;;1.90;;
35777;SDS011;21899;42.662;23.316;2023-07-20T14:27:21;5.93;;;2.30;;
35777;SDS011;21899;42.662;23.316;2023-07-20T14:29:46;9.43;;;1.63;;
35777;SDS011;21899;42.662;23.316;2023-07-20T14:32:12;4.50;;;2.15;;
35777;SDS011;21899;42.662;23.316;2023-07-20T14:34:37;9.27;;;2.10;;
35777;SDS011;21899;42.662;23.316;2023-07-20T14:37:02;3.35;;;1.80;;
35777;SDS011;21899;42.662;23.316;2023-07-20T14:39:29;5.43;;;2.45;;
35777;SDS011;21899;42.662;23.316;2023-07-20T14:41:54;3.60;;;2.03;;
35777;SDS011;21899;42.662;23.316;2023-07-20T14:44:20;6.03;;;2.40;;
35777;SDS011;21899;42.662;23.316;2023-07-20T14:46:45;7.63;;;2.55;;